Archival Weather

Luke Afb

Glendale, Arizona (KLUF)

Report from: Friday, April 19, 2024 2:55 AM MST
Current time: Monday, June 24, 2024 3:39 AM MST

Current weather – Weather history – Daily summaries
Weather forecast

Temperature17.6°C (63.7°F)
Dew point0.7°C (33.3°F)
Winds 5 kts (2.6 m/s, 5.8 mph) North-Northwest (330°)
Visibility10 mi. (16.1 km)
Clouds Sky clear
Altimeter29.81 in.Hg (1009 mB)
Relative humidity32 %
Density altitude573 ft. (175 m)
Sea-level pressure100.8 kPa (1008 mB, 29.78 in.Hg)
Remarks Fully automated report
System requires maintenance
Automated weather observing station with precipitation discriminator
Flight conditions Visual Meteorological Conditions
Raw dataKLUF 190955Z AUTO 33005KT 10SM CLR 18/01 A2981 RMK AO2 SLP083 T01760007 $
An error has occurred. This application may no longer respond until reloaded. Reload 🗙